Time;durP1;ratioP1;P1;durP2;ratioP2;P2;SDS_P1;SDS_P2;PMS_P1;PMS_P2;Temp;Humidity;BMP_temperature;BMP_pressure;BME280_temperature;BME280_humidity;BME280_pressure;Samples;Min_cycle;Max_cycle;Signal;HPM_P1;HPM_P2
2023/09/29 00:01:49;;;;;;;18.48;7.64;;;;;;;17.50;81.49;101034.89;5081446;56;1140784;-71
2023/09/29 00:06:55;;;;;;;11.43;6.85;;;;;;;17.41;82.01;101025.61;5113027;56;1184425;-72
2023/09/29 00:12:00;;;;;;;10.23;6.15;;;;;;;17.26;81.31;101022.60;5078728;56;1140849;-72
2023/09/29 00:17:06;;;;;;;19.00;6.87;;;;;;;17.08;81.76;101023.05;4995045;57;1150346;-72
2023/09/29 00:22:11;;;;;;;17.33;6.43;;;;;;;17.03;83.12;101016.80;5014391;57;1249134;-72
2023/09/29 00:27:17;;;;;;;9.83;6.40;;;;;;;17.08;83.97;101021.72;4995853;56;1184614;-72
2023/09/29 00:32:23;;;;;;;13.13;8.07;;;;;;;16.95;83.40;101022.06;5063085;57;1138626;-72
2023/09/29 00:37:29;;;;;;;10.27;7.97;;;;;;;16.94;84.69;101016.37;4935602;58;1248757;-72
2023/09/29 00:42:34;;;;;;;23.20;8.03;;;;;;;16.92;84.50;101018.34;4916500;58;1140958;-72
2023/09/29 00:47:42;;;;;;;19.40;8.40;;;;;;;16.68;84.44;101010.84;4994213;56;1247160;-71
2023/09/29 00:52:51;;;;;;;18.92;7.17;;;;;;;16.66;86.14;101010.63;4994860;57;1248234;-72
2023/09/29 00:58:00;;;;;;;15.50;7.25;;;;;;;16.73;86.13;101009.07;5013236;58;1248456;-72
2023/09/29 01:03:10;;;;;;;14.73;7.27;;;;;;;16.73;85.85;101005.06;5075975;56;1258315;-71
2023/09/29 01:08:22;;;;;;;11.07;8.40;;;;;;;16.65;85.87;101003.63;5075029;57;1248609;-72
2023/09/29 01:13:28;;;;;;;15.77;8.33;;;;;;;16.57;87.29;100998.13;5096629;56;1247121;-73
2023/09/29 01:18:34;;;;;;;14.47;7.90;;;;;;;16.61;87.46;101001.70;5075988;56;1254517;-72
2023/09/29 01:23:42;;;;;;;9.77;7.33;;;;;;;16.67;87.47;101004.30;5077940;56;1247270;-72
2023/09/29 01:28:50;;;;;;;30.35;8.68;;;;;;;16.64;86.93;100997.45;5004432;57;1256968;-72
2023/09/29 01:33:55;;;;;;;14.30;7.40;;;;;;;16.60;87.18;100997.35;5009454;57;1259823;-72
2023/09/29 01:39:01;;;;;;;22.07;7.53;;;;;;;16.49;86.41;100998.38;4992127;57;1140793;-71
2023/09/29 01:44:07;;;;;;;18.07;7.90;;;;;;;16.52;87.65;100992.73;4989802;57;1256466;-71
2023/09/29 01:49:12;;;;;;;14.03;9.10;;;;;;;16.48;87.07;100998.52;5005014;57;1257568;-71
2023/09/29 01:54:18;;;;;;;13.93;8.23;;;;;;;16.48;87.83;100994.03;4990078;57;1257630;-72
2023/09/29 01:59:23;;;;;;;12.37;8.17;;;;;;;16.57;88.35;100993.63;4997500;57;1141182;-71
2023/09/29 02:04:29;;;;;;;16.43;9.20;;;;;;;16.47;87.32;100995.02;5081167;55;1140958;-71
2023/09/29 02:09:35;;;;;;;12.40;8.47;;;;;;;16.50;88.30;100993.86;5084071;54;1140748;-71
2023/09/29 02:14:41;;;;;;;17.30;8.40;;;;;;;16.48;87.69;100993.19;5099562;54;1140704;-72
2023/09/29 02:19:47;;;;;;;17.08;8.20;;;;;;;16.35;87.37;101000.16;5099958;55;1140923;-73
2023/09/29 02:24:52;;;;;;;15.43;7.30;;;;;;;16.33;88.10;100999.97;5062749;56;1140966;-71
2023/09/29 02:29:59;;;;;;;18.15;8.13;;;;;;;16.37;87.36;100996.00;4999977;56;1213449;-71
2023/09/29 02:35:05;;;;;;;14.33;8.88;;;;;;;16.29;87.94;100990.06;5005528;56;1140933;-72
2023/09/29 02:40:12;;;;;;;16.90;9.27;;;;;;;16.21;87.70;100989.93;4941873;57;1141047;-72
2023/09/29 02:45:17;;;;;;;18.93;9.60;;;;;;;16.22;88.44;100992.11;5025478;56;1140786;-72
2023/09/29 02:50:24;;;;;;;16.23;8.47;;;;;;;16.14;88.38;100984.34;5024517;55;1216873;-71
2023/09/29 02:55:30;;;;;;;14.10;8.73;;;;;;;16.01;87.93;100982.47;5046006;56;1141458;-71
2023/09/29 03:00:38;;;;;;;26.20;9.03;;;;;;;15.88;88.31;100992.61;5052096;56;1141197;-72
2023/09/29 03:05:43;;;;;;;15.40;8.10;;;;;;;15.80;88.70;100990.63;5101731;56;1175082;-71
2023/09/29 03:10:49;;;;;;;12.20;7.55;;;;;;;15.73;89.16;100984.19;5106162;56;1141080;-72
2023/09/29 03:15:54;;;;;;;14.23;8.68;;;;;;;15.83;90.00;100989.51;5099254;57;1140904;-71
2023/09/29 03:21:00;;;;;;;18.50;9.17;;;;;;;15.90;90.32;100983.94;5152181;56;1140772;-71
2023/09/29 03:26:06;;;;;;;27.60;9.70;;;;;;;15.93;90.40;100978.33;4996242;57;1140976;-72
2023/09/29 03:31:11;;;;;;;19.03;9.90;;;;;;;15.90;89.81;100979.09;5015567;57;1140925;-73
2023/09/29 03:36:20;;;;;;;19.90;10.43;;;;;;;15.69;89.74;100980.11;4922284;58;1140902;-71
2023/09/29 03:41:24;;;;;;;17.74;8.50;;;;;;;15.61;90.18;100972.44;4915212;57;1142871;-71
2023/09/29 03:46:30;;;;;;;19.77;8.90;;;;;;;15.44;89.99;100965.95;5014480;57;1140966;-72
2023/09/29 03:51:36;;;;;;;26.57;9.70;;;;;;;15.46;91.58;100963.50;5011466;56;1140770;-72
2023/09/29 03:56:41;;;;;;;20.07;9.23;;;;;;;15.49;91.69;100962.38;5055735;57;1140965;-74
2023/09/29 04:01:47;;;;;;;20.00;10.13;;;;;;;15.47;92.29;100965.19;4910890;58;1147854;-71
2023/09/29 04:06:52;;;;;;;14.18;9.50;;;;;;;15.41;92.26;100971.09;5082997;56;1144871;-72
2023/09/29 04:11:58;;;;;;;16.93;10.40;;;;;;;15.41;92.37;100969.77;5078906;56;1141085;-74
2023/09/29 04:17:04;;;;;;;22.30;9.45;;;;;;;15.35;92.23;100974.30;5096913;56;1143194;-73
2023/09/29 04:22:10;;;;;;;25.27;10.43;;;;;;;15.27;91.95;100975.50;5117895;56;1140721;-73
2023/09/29 04:27:15;;;;;;;16.17;10.17;;;;;;;15.16;92.53;100972.09;5097712;56;1142943;-72
2023/09/29 04:32:21;;;;;;;26.17;11.73;;;;;;;15.08;92.87;100973.63;5098443;56;1142902;-72
2023/09/29 04:37:27;;;;;;;19.07;10.83;;;;;;;15.01;93.72;100963.64;5148392;56;1143003;-73
2023/09/29 04:42:34;;;;;;;19.33;10.73;;;;;;;14.98;94.30;100970.08;5115090;55;1142672;-72
2023/09/29 04:47:39;;;;;;;17.83;10.70;;;;;;;14.93;94.35;100960.34;5168193;55;1143218;-71
2023/09/29 04:52:45;;;;;;;28.57;11.40;;;;;;;14.89;94.68;100950.09;5103591;56;1142948;-73
2023/09/29 04:57:52;;;;;;;31.15;12.35;;;;;;;14.84;95.25;100942.50;5080022;56;1142832;-72
2023/09/29 05:02:58;;;;;;;23.87;11.60;;;;;;;14.86;96.09;100941.87;5035796;56;1142937;-73
2023/09/29 05:08:04;;;;;;;23.95;12.30;;;;;;;14.88;96.46;100943.92;5098888;56;1143133;-74
2023/09/29 05:13:09;;;;;;;24.90;11.87;;;;;;;14.88;96.59;100939.09;5044725;56;1142900;-73
2023/09/29 05:18:15;;;;;;;30.57;12.17;;;;;;;14.93;97.41;100936.86;5099121;56;1142939;-70
2023/09/29 05:23:20;;;;;;;38.13;13.63;;;;;;;14.95;97.72;100933.58;5064300;56;1142859;-70
2023/09/29 05:28:26;;;;;;;24.07;11.77;;;;;;;14.99;97.81;100938.47;5083792;56;1142993;-73
2023/09/29 05:33:32;;;;;;;41.07;13.23;;;;;;;15.11;98.51;100934.73;5036931;56;1143085;-74
2023/09/29 05:38:37;;;;;;;34.77;13.00;;;;;;;15.21;98.79;100939.22;4926355;57;1142859;-70
2023/09/29 05:43:44;;;;;;;38.03;12.23;;;;;;;15.34;99.28;100943.78;5045164;56;1143032;-74
2023/09/29 05:48:49;;;;;;;40.33;14.20;;;;;;;15.44;98.97;100952.63;4978060;57;1143005;-74
2023/09/29 05:53:55;;;;;;;32.58;11.68;;;;;;;15.44;98.83;100946.80;5013913;57;1143232;-72
2023/09/29 05:59:01;;;;;;;33.95;12.25;;;;;;;15.42;98.89;100958.61;5035584;56;1143007;-75
2023/09/29 06:04:07;;;;;;;24.92;10.48;;;;;;;15.54;99.86;100964.64;5052593;56;1142758;-73
2023/09/29 06:09:13;;;;;;;22.70;10.50;;;;;;;15.61;100.00;100963.95;5025066;57;1142608;-74
2023/09/29 06:14:18;;;;;;;18.33;10.93;;;;;;;15.92;100.00;100965.97;5025371;56;1144837;-74
2023/09/29 06:19:24;;;;;;;18.67;10.40;;;;;;;16.43;100.00;100966.91;5044867;56;1144901;-74
2023/09/29 06:24:29;;;;;;;25.13;10.67;;;;;;;16.78;100.00;100974.75;4968612;56;1145180;-73
2023/09/29 06:29:35;;;;;;;15.30;10.67;;;;;;;16.90;100.00;100978.91;5011993;56;1145396;-71
2023/09/29 06:34:41;;;;;;;16.27;9.07;;;;;;;16.84;100.00;100979.48;5034496;57;1144915;-71
2023/09/29 06:39:46;;;;;;;18.63;9.27;;;;;;;16.94;100.00;100968.77;4963007;57;1142578;-72
2023/09/29 06:44:52;;;;;;;22.00;10.10;;;;;;;17.32;100.00;100972.52;5028494;56;1143046;-74
2023/09/29 06:49:57;;;;;;;17.30;8.90;;;;;;;17.57;100.00;100970.91;5040732;56;1145001;-71
2023/09/29 06:55:03;;;;;;;20.67;8.27;;;;;;;17.66;100.00;100974.06;5030649;56;1142925;-73
2023/09/29 07:00:09;;;;;;;15.87;7.93;;;;;;;17.67;98.08;100962.86;5014053;57;1143489;-72
2023/09/29 07:05:15;;;;;;;14.90;6.97;;;;;;;17.86;100.00;100956.00;5020084;57;1140867;-71
2023/09/29 07:10:21;;;;;;;19.97;7.50;;;;;;;18.33;100.00;100964.53;5023913;56;1142863;-70
2023/09/29 07:15:26;;;;;;;9.87;7.17;;;;;;;18.61;97.51;100959.86;5109277;56;1143105;-71
2023/09/29 07:20:32;;;;;;;21.50;7.63;;;;;;;18.83;95.99;100963.78;5033223;56;1138745;-71
2023/09/29 07:25:40;;;;;;;13.83;7.43;;;;;;;19.04;96.04;100962.87;5078804;55;1140761;-71
2023/09/29 07:30:47;;;;;;;23.10;8.28;;;;;;;19.07;91.49;100964.39;4991330;56;1140955;-72
2023/09/29 07:35:52;;;;;;;16.65;6.85;;;;;;;19.08;92.19;100961.55;4995888;56;1141045;-73
2023/09/29 07:40:59;;;;;;;13.30;6.92;;;;;;;19.32;92.51;100963.44;5015101;57;1141078;-73
2023/09/29 07:46:05;;;;;;;15.05;7.50;;;;;;;19.67;92.74;100950.27;4995556;57;1140958;-73
2023/09/29 07:51:10;;;;;;;17.52;8.30;;;;;;;19.84;89.66;100962.69;4996594;57;1140721;-73
2023/09/29 07:56:16;;;;;;;14.47;7.00;;;;;;;20.10;90.84;100960.31;5098663;56;1140906;-74
2023/09/29 08:01:22;;;;;;;12.47;6.15;;;;;;;20.44;87.25;100954.73;5079019;56;1140877;-75
2023/09/29 08:06:27;;;;;;;18.23;6.90;;;;;;;20.79;88.14;100958.28;5001644;57;1140810;-75
2023/09/29 08:11:33;;;;;;;10.93;6.30;;;;;;;20.84;85.25;100953.23;4965430;57;1140743;-72
2023/09/29 08:16:39;;;;;;;14.87;6.20;;;;;;;21.20;85.27;100950.06;4916466;57;1140635;-74
2023/09/29 08:21:46;;;;;;;11.43;6.42;;;;;;;21.27;83.75;100960.42;4927858;57;1140853;-74
2023/09/29 08:26:51;;;;;;;11.12;6.20;;;;;;;21.35;82.13;100964.42;4996022;57;1140998;-74
2023/09/29 08:31:58;;;;;;;17.77;6.62;;;;;;;21.41;80.80;100963.70;5015774;57;1140986;-75
2023/09/29 08:37:03;;;;;;;9.35;6.30;;;;;;;21.49;81.79;100967.69;4995161;57;1140810;-73
2023/09/29 08:42:31;;;;;;;22.83;6.70;;;;;;;21.63;81.05;100962.87;4991217;57;1138932;-73
2023/09/29 08:47:40;;;;;;;17.40;6.83;;;;;;;21.85;80.86;100954.94;5029488;57;1140890;-75
2023/09/29 08:52:49;;;;;;;10.68;6.17;;;;;;;22.03;78.65;100960.36;5012523;57;1140837;-74
2023/09/29 08:57:55;;;;;;;9.97;6.07;;;;;;;22.20;78.70;100957.52;4991362;57;1141142;-72
2023/09/29 09:03:01;;;;;;;16.60;6.27;;;;;;;22.45;78.18;100952.20;4996274;56;1138837;-73
2023/09/29 09:08:07;;;;;;;12.45;5.92;;;;;;;22.61;74.83;100943.91;4956619;56;1140988;-73
2023/09/29 09:13:13;;;;;;;18.52;6.08;;;;;;;22.67;74.32;100941.82;4948187;57;1141141;-72
2023/09/29 09:18:19;;;;;;;12.25;5.95;;;;;;;22.92;72.72;100940.17;5032862;57;1140950;-74
2023/09/29 09:23:24;;;;;;;14.63;5.15;;;;;;;22.92;72.72;100940.17;4973173;56;1140868;-72
2023/09/29 09:28:33;;;;;;;9.13;5.42;;;;;;;23.13;70.48;100946.98;4987464;57;1140852;-72
2023/09/29 09:33:39;;;;;;;8.93;5.25;;;;;;;23.16;69.38;100946.60;5072007;56;1138944;-72
2023/09/29 09:38:47;;;;;;;10.20;5.22;;;;;;;23.20;69.38;100938.97;4962863;56;1138631;-74
2023/09/29 09:43:52;;;;;;;13.93;5.23;;;;;;;23.34;69.84;100935.37;4987237;57;1140749;-74
2023/09/29 09:49:14;;;;;;;8.78;5.28;;;;;;;23.47;69.81;100928.25;4996829;57;1141055;-74
2023/09/29 09:54:18;;;;;;;9.10;5.37;;;;;;;23.66;69.64;100916.51;4963201;57;1138444;-73
2023/09/29 09:59:25;;;;;;;11.33;5.55;;;;;;;23.77;67.94;100908.70;4991378;56;1139124;-73
2023/09/29 10:04:33;;;;;;;8.25;5.55;;;;;;;23.98;67.90;100917.81;4994443;57;1141043;-72
2023/09/29 10:09:48;;;;;;;10.75;5.90;;;;;;;24.19;69.56;100907.75;5007932;57;1138663;-73
2023/09/29 10:15:03;;;;;;;11.28;5.60;;;;;;;24.39;67.54;100904.38;5061893;56;1140978;-73
2023/09/29 10:20:04;;;;;;;11.03;4.87;;;;;;;24.46;65.42;100916.04;4971771;56;1140908;-73
2023/09/29 10:25:19;;;;;;;15.00;5.17;;;;;;;24.46;65.12;100911.47;4952056;57;1140879;-72
2023/09/29 10:30:26;;;;;;;11.53;5.08;;;;;;;24.57;66.68;100908.73;4992482;56;1140870;-72
2023/09/29 10:35:39;;;;;;;15.10;5.58;;;;;;;24.76;66.26;100903.06;5015668;55;1140723;-72
2023/09/29 10:40:41;;;;;;;11.00;4.37;;;;;;;24.98;64.65;100899.75;4948532;56;1140944;-74
2023/09/29 10:45:47;;;;;;;10.30;5.33;;;;;;;25.15;63.08;100905.95;4991808;57;1140697;-73
2023/09/29 10:50:54;;;;;;;15.67;5.03;;;;;;;25.15;63.65;100902.41;4985138;56;1140851;-74
2023/09/29 10:56:00;;;;;;;15.10;5.97;;;;;;;25.28;64.51;100896.18;4999292;58;1140914;-74
2023/09/29 11:01:05;;;;;;;13.58;5.72;;;;;;;25.43;64.38;100887.34;4995315;57;1140953;-74
2023/09/29 11:06:17;;;;;;;12.73;5.42;;;;;;;25.54;62.71;100886.72;4911969;58;1141117;-74
2023/09/29 11:11:22;;;;;;;;;;;;;;;25.59;62.09;100881.52;5089180;56;1140866;-74
2023/09/29 11:16:28;;;;;;;5.60;4.35;;;;;;;25.67;61.81;100882.69;5015849;56;976199;-73
2023/09/29 11:21:35;;;;;;;11.03;4.70;;;;;;;25.81;60.30;100881.66;4997007;57;1136616;-74
2023/09/29 11:26:46;;;;;;;7.03;4.83;;;;;;;25.98;60.96;100872.55;5015762;57;1140779;-74
2023/09/29 11:31:55;;;;;;;9.78;4.60;;;;;;;26.16;59.85;100876.78;5079446;56;1138491;-75
2023/09/29 11:37:00;;;;;;;11.90;4.87;;;;;;;26.28;60.09;100871.53;4990529;57;1138811;-72
2023/09/29 11:42:06;;;;;;;11.73;5.03;;;;;;;26.36;59.48;100862.38;5014410;57;1140757;-72
2023/09/29 11:47:13;;;;;;;8.78;4.47;;;;;;;26.41;58.44;100861.22;4994819;57;1140902;-73
2023/09/29 11:52:18;;;;;;;10.78;5.00;;;;;;;26.44;59.24;100857.53;4992405;57;1138782;-74
2023/09/29 11:57:25;;;;;;;8.78;4.28;;;;;;;26.40;57.92;100855.48;5099085;56;1140462;-72
2023/09/29 12:02:30;;;;;;;18.35;5.10;;;;;;;26.32;57.32;100855.71;5067910;56;1138749;-73
2023/09/29 12:07:36;;;;;;;8.68;5.30;;;;;;;26.35;57.96;100856.12;4991553;57;1140612;-72
2023/09/29 12:12:42;;;;;;;15.35;5.35;;;;;;;26.30;57.97;100851.02;5099015;56;1138537;-72
2023/09/29 12:17:47;;;;;;;13.78;5.28;;;;;;;26.30;58.74;100844.23;4997229;56;1141100;-73
2023/09/29 12:22:55;;;;;;;9.90;4.85;;;;;;;26.36;57.76;100841.52;4997758;55;1140679;-73
2023/09/29 12:28:00;;;;;;;17.65;5.05;;;;;;;26.51;58.72;100840.72;5016956;56;1138956;-72
2023/09/29 12:33:06;;;;;;;17.30;5.25;;;;;;;26.69;58.31;100846.80;4996516;56;1140552;-73
2023/09/29 12:38:12;;;;;;;12.93;5.27;;;;;;;26.76;56.21;100836.73;4996136;56;1140829;-71
2023/09/29 12:43:17;;;;;;;8.80;4.78;;;;;;;26.81;58.37;100828.77;5092826;57;1140527;-74
2023/09/29 12:48:23;;;;;;;19.73;4.87;;;;;;;26.87;57.17;100824.37;5024665;57;1138669;-74
2023/09/29 12:53:28;;;;;;;16.82;4.97;;;;;;;27.00;56.93;100823.48;5075080;56;1140947;-73
2023/09/29 12:58:34;;;;;;;13.55;4.75;;;;;;;27.01;55.92;100834.13;5185615;55;1141089;-72
2023/09/29 13:03:40;;;;;;;13.55;4.78;;;;;;;26.90;55.68;100832.05;5134382;56;1140876;-72
2023/09/29 13:08:45;;;;;;;9.63;4.53;;;;;;;26.80;55.04;100837.13;5078632;56;1140770;-73
2023/09/29 13:13:51;;;;;;;17.20;5.10;;;;;;;26.73;55.24;100842.61;5078979;56;1138653;-72
2023/09/29 13:18:57;;;;;;;9.28;5.10;;;;;;;26.80;56.14;100838.48;5099441;56;1140927;-73
2023/09/29 13:24:03;;;;;;;13.83;4.33;;;;;;;26.87;56.42;100837.94;5079637;56;1138834;-73
2023/09/29 13:29:09;;;;;;;10.95;4.25;;;;;;;26.91;55.79;100844.05;5078610;56;1141014;-73
2023/09/29 13:34:15;;;;;;;12.00;4.40;;;;;;;26.83;55.22;100829.39;5098041;56;1140788;-73
2023/09/29 13:39:22;;;;;;;8.93;4.10;;;;;;;26.78;55.16;100822.94;5052464;56;1141051;-73
2023/09/29 13:44:28;;;;;;;9.08;3.87;;;;;;;26.67;55.00;100828.55;4997227;57;1138604;-73
2023/09/29 13:49:34;;;;;;;11.75;4.05;;;;;;;26.60;54.83;100823.66;5028046;55;1138729;-73
2023/09/29 13:54:40;;;;;;;12.28;4.30;;;;;;;26.53;55.34;100812.86;5028337;56;1140857;-72
2023/09/29 13:59:45;;;;;;;7.58;4.30;;;;;;;26.44;54.89;100818.20;4999602;56;1141118;-75
2023/09/29 14:04:51;;;;;;;13.95;5.83;;;;;;;26.34;55.72;100819.72;5033492;56;1138966;-74
2023/09/29 14:09:57;;;;;;;87.75;70.72;;;;;;;26.28;56.67;100814.09;5083962;56;1140832;-74
2023/09/29 14:15:03;;;;;;;20.27;8.93;;;;;;;26.24;57.02;100806.59;5047365;56;1142793;-75
2023/09/29 14:20:09;;;;;;;12.05;5.53;;;;;;;26.14;57.28;100815.69;4948405;58;1141007;-74
2023/09/29 14:25:15;;;;;;;17.70;5.90;;;;;;;26.00;58.00;100814.06;4938431;58;1140903;-72
2023/09/29 14:30:21;;;;;;;8.63;5.00;;;;;;;25.90;58.25;100806.37;4994796;57;1140749;-72
2023/09/29 14:35:27;;;;;;;16.70;4.83;;;;;;;25.83;59.01;100809.09;5081701;56;1138967;-73
2023/09/29 14:40:33;;;;;;;14.53;4.37;;;;;;;25.75;59.61;100813.91;5119327;56;1140499;-72
2023/09/29 14:45:38;;;;;;;29.10;5.33;;;;;;;25.57;60.64;100814.01;5099342;56;1140438;-71
2023/09/29 14:50:44;;;;;;;16.20;4.75;;;;;;;25.43;61.88;100795.27;5168186;55;1140702;-72
2023/09/29 14:55:49;;;;;;;26.87;5.35;;;;;;;25.36;62.52;100802.58;5145579;56;1140896;-73
2023/09/29 15:00:55;;;;;;;12.47;5.75;;;;;;;25.34;63.03;100793.30;5051295;56;1140895;-71
2023/09/29 15:06:07;;;;;;;25.27;10.10;;;;;;;25.31;63.21;100791.02;5079688;56;1140938;-72
2023/09/29 15:11:21;;;;;;;20.55;7.75;;;;;;;25.32;63.32;100786.42;5074151;56;1143060;-72
2023/09/29 15:16:28;;;;;;;24.85;10.85;;;;;;;25.28;63.52;100783.30;4975565;57;1140762;-73
2023/09/29 15:21:36;;;;;;;32.78;9.50;;;;;;;25.25;64.04;100785.06;5093933;56;1142863;-73
2023/09/29 15:26:41;;;;;;;23.70;8.05;;;;;;;25.22;64.41;100784.95;5183988;55;1140768;-73
2023/09/29 15:31:47;;;;;;;20.02;8.98;;;;;;;25.20;64.77;100776.75;5022108;56;1140987;-74
2023/09/29 15:36:53;;;;;;;17.85;5.17;;;;;;;25.11;65.05;100782.05;4986624;56;1141046;-74
2023/09/29 15:41:59;;;;;;;24.18;5.62;;;;;;;24.95;65.83;100788.69;4935316;58;1141027;-73
2023/09/29 15:47:04;;;;;;;37.25;9.75;;;;;;;24.79;66.63;100791.23;4935301;58;1141106;-73
2023/09/29 15:52:12;;;;;;;27.10;7.42;;;;;;;24.72;67.20;100784.99;4955037;57;1140761;-74
2023/09/29 15:57:17;;;;;;;27.42;9.68;;;;;;;24.66;67.69;100789.86;4824425;58;1141024;-74
2023/09/29 16:02:23;;;;;;;38.67;8.05;;;;;;;24.63;68.13;100787.55;4864259;58;1140917;-71
2023/09/29 16:07:28;;;;;;;30.60;7.45;;;;;;;24.64;68.53;100785.16;4935018;58;1140613;-72
2023/09/29 16:12:34;;;;;;;20.23;5.92;;;;;;;24.66;69.13;100780.39;4907292;58;1140721;-73
2023/09/29 16:17:42;;;;;;;18.48;5.35;;;;;;;24.66;69.41;100786.31;4906743;58;1141160;-72
2023/09/29 16:22:47;;;;;;;39.25;17.55;;;;;;;24.62;69.91;100788.59;4923562;57;1141086;-74
2023/09/29 16:27:52;;;;;;;25.75;12.25;;;;;;;24.53;70.52;100789.82;4938343;58;1142838;-74
2023/09/29 16:32:58;;;;;;;28.65;8.33;;;;;;;24.49;71.26;100788.55;4908172;58;1161325;-73
2023/09/29 16:38:04;;;;;;;29.97;14.07;;;;;;;24.39;71.65;100794.36;4963885;57;1140932;-74
2023/09/29 16:43:09;;;;;;;42.43;15.00;;;;;;;24.24;72.50;100806.34;5031838;57;1143278;-72
2023/09/29 16:48:17;;;;;;;52.17;19.25;;;;;;;24.20;73.74;100797.25;5007095;56;1143184;-73
2023/09/29 16:53:28;;;;;;;52.23;15.50;;;;;;;24.24;74.35;100802.30;5019315;57;1143232;-72
2023/09/29 16:58:30;;;;;;;39.73;16.48;;;;;;;24.19;74.85;100792.87;5004566;57;1143053;-72
2023/09/29 17:03:37;;;;;;;43.30;15.28;;;;;;;24.09;75.90;100796.48;4944731;57;1142907;-73
2023/09/29 17:08:42;;;;;;;38.92;12.07;;;;;;;24.01;76.54;100797.98;5017640;56;1142901;-71
2023/09/29 17:13:48;;;;;;;32.00;11.40;;;;;;;23.95;77.08;100797.96;4995492;56;1143004;-73
2023/09/29 17:18:54;;;;;;;27.70;10.60;;;;;;;23.93;77.98;100805.43;4962088;56;1143052;-73
2023/09/29 17:24:06;;;;;;;30.88;12.93;;;;;;;23.92;78.29;100795.66;4965972;56;1143065;-74
2023/09/29 17:29:11;;;;;;;33.77;13.20;;;;;;;23.85;78.66;100800.48;4962098;56;1142693;-73
2023/09/29 17:34:16;;;;;;;49.08;11.33;;;;;;;23.82;79.14;100796.02;5000463;57;1143122;-73
2023/09/29 17:39:22;;;;;;;47.13;13.18;;;;;;;23.78;79.64;100798.28;4993609;56;1142959;-75
2023/09/29 17:44:27;;;;;;;73.28;13.88;;;;;;;23.75;79.88;100799.19;4895193;57;1143117;-74
2023/09/29 17:49:33;;;;;;;42.85;13.28;;;;;;;23.71;80.40;100800.60;4911938;58;1142901;-75
2023/09/29 17:54:39;;;;;;;43.63;13.58;;;;;;;23.66;81.01;100805.78;4923304;58;1142960;-72
2023/09/29 17:59:45;;;;;;;32.42;16.65;;;;;;;23.67;82.00;100805.59;4941300;57;1143427;-75
2023/09/29 18:04:50;;;;;;;51.46;28.56;;;;;;;23.62;82.90;100801.80;4926256;57;1142936;-75
2023/09/29 18:09:56;;;;;;;27.90;12.88;;;;;;;23.38;83.50;100801.16;4939562;58;1142691;-73
2023/09/29 18:15:03;;;;;;;11.90;8.40;;;;;;;23.23;84.19;100803.11;4967324;57;1143096;-71
2023/09/29 18:20:10;;;;;;;18.80;9.37;;;;;;;23.21;85.18;100800.31;4894282;57;1140781;-73
2023/09/29 18:25:16;;;;;;;13.35;8.80;;;;;;;23.13;85.76;100809.36;4864536;58;1140660;-72
2023/09/29 18:30:21;;;;;;;21.33;11.35;;;;;;;23.14;86.81;100801.59;4969605;58;1140770;-74
2023/09/29 18:35:27;;;;;;;20.30;10.90;;;;;;;22.98;86.56;100801.84;4938914;58;1142944;-71
2023/09/29 18:40:33;;;;;;;27.40;13.80;;;;;;;22.89;87.68;100800.32;4924099;58;1143113;-73
2023/09/29 18:45:39;;;;;;;28.47;13.95;;;;;;;22.67;87.73;100808.86;4942420;57;1143205;-73
2023/09/29 18:50:44;;;;;;;28.38;13.18;;;;;;;22.48;89.16;100814.34;4952092;57;1142968;-71
2023/09/29 18:55:50;;;;;;;23.27;12.25;;;;;;;22.41;91.35;100809.40;4981212;57;1143027;-71
2023/09/29 19:00:55;;;;;;;53.17;26.12;;;;;;;22.46;93.43;100798.86;4972278;57;1142825;-74
2023/09/29 19:06:04;;;;;;;18.62;10.04;;;;;;;22.36;94.53;100780.82;4928801;58;1142752;-74
2023/09/29 19:11:19;;;;;;;14.75;8.33;;;;;;;22.22;94.36;100771.75;4909966;58;1142885;-74
2023/09/29 19:16:24;;;;;;;10.53;7.95;;;;;;;22.21;95.01;100784.89;4924401;58;1140902;-74
2023/09/29 19:21:30;;;;;;;22.05;9.30;;;;;;;22.27;95.10;100781.45;4969906;57;1141094;-74
2023/09/29 19:26:36;;;;;;;17.60;9.10;;;;;;;22.27;95.62;100780.62;4994713;57;1140816;-74
2023/09/29 19:31:41;;;;;;;32.98;15.83;;;;;;;22.35;96.22;100765.67;4935140;58;1140987;-72
2023/09/29 19:36:47;;;;;;;46.90;25.37;;;;;;;22.30;96.44;100750.09;4978951;57;1143201;-72
2023/09/29 19:41:53;;;;;;;27.95;13.32;;;;;;;22.21;96.42;100748.52;4982459;57;1142770;-72
2023/09/29 19:46:58;;;;;;;54.73;28.92;;;;;;;22.21;96.63;100744.98;5030695;57;1142660;-72
2023/09/29 19:52:04;;;;;;;74.70;46.08;;;;;;;22.09;95.85;100738.75;5010638;57;1142583;-73
2023/09/29 19:57:10;;;;;;;50.17;32.80;;;;;;;21.90;96.03;100750.06;5010728;57;1142627;-74
2023/09/29 20:02:16;;;;;;;39.50;27.57;;;;;;;21.82;97.96;100743.44;5030609;57;1143058;-73
2023/09/29 20:07:22;;;;;;;37.03;21.10;;;;;;;21.83;98.76;100733.50;5019543;57;1143004;-72
2023/09/29 20:12:27;;;;;;;21.90;12.85;;;;;;;21.86;98.90;100727.72;5020505;57;1142898;-74
2023/09/29 20:17:34;;;;;;;26.37;14.25;;;;;;;21.90;99.37;100733.91;5014163;57;1143067;-73
2023/09/29 20:22:39;;;;;;;31.85;16.35;;;;;;;21.94;99.68;100730.33;4988187;56;1142805;-74
2023/09/29 20:27:45;;;;;;;26.42;15.25;;;;;;;21.95;100.00;100730.14;5008399;57;1143058;-74
2023/09/29 20:32:51;;;;;;;47.95;30.80;;;;;;;21.94;100.00;100725.78;5145127;55;1145044;-73
2023/09/29 20:37:57;;;;;;;31.35;19.77;;;;;;;21.90;99.76;100704.28;5073396;56;1144932;-72
2023/09/29 20:43:03;;;;;;;17.98;9.75;;;;;;;21.71;99.77;100706.20;5118758;56;1142651;-73
2023/09/29 20:48:10;;;;;;;15.72;10.30;;;;;;;21.64;100.00;100708.81;4983178;56;1268273;-73
2023/09/29 20:53:16;;;;;;;20.77;11.87;;;;;;;21.67;100.00;100703.58;5060161;56;1145019;-72
2023/09/29 20:58:22;;;;;;;23.47;11.80;;;;;;;21.65;100.00;100697.53;5015360;56;1145172;-73
2023/09/29 21:03:27;;;;;;;19.23;8.50;;;;;;;21.59;100.00;100692.38;5008466;56;1145043;-73
2023/09/29 21:08:33;;;;;;;12.53;9.33;;;;;;;21.55;100.00;100700.49;5031963;56;1142981;-73
2023/09/29 21:13:39;;;;;;;17.37;7.60;;;;;;;21.54;100.00;100704.20;4982179;56;1142755;-71
2023/09/29 21:18:44;;;;;;;6.97;6.30;;;;;;;21.31;100.00;100705.64;5015418;57;1143035;-72
2023/09/29 21:23:50;;;;;;;13.65;7.28;;;;;;;21.17;100.00;100702.39;5045103;56;1141219;-73
2023/09/29 21:28:56;;;;;;;11.05;6.58;;;;;;;21.08;100.00;100708.89;4961381;57;1142744;-73
2023/09/29 21:34:01;;;;;;;11.80;8.93;;;;;;;20.98;100.00;100709.62;5015552;56;1143159;-73
2023/09/29 21:39:07;;;;;;;12.60;8.00;;;;;;;20.89;100.00;100701.32;5015888;56;1142800;-73
2023/09/29 21:44:13;;;;;;;10.58;7.67;;;;;;;20.97;100.00;100710.64;5035869;56;1142950;-73
2023/09/29 21:49:20;;;;;;;13.73;8.03;;;;;;;21.07;100.00;100708.55;5050076;56;1143175;-72
2023/09/29 21:54:26;;;;;;;10.40;7.95;;;;;;;21.16;100.00;100703.41;5000476;57;1142967;-73
2023/09/29 21:59:31;;;;;;;14.20;7.90;;;;;;;21.15;100.00;100704.94;5013603;58;1142991;-72
2023/09/29 22:04:37;;;;;;;17.05;9.38;;;;;;;21.06;100.00;100703.69;4952300;58;1142777;-71
2023/09/29 22:09:43;;;;;;;19.60;9.73;;;;;;;21.14;100.00;100693.34;4911417;59;1143190;-72
2023/09/29 22:14:48;;;;;;;17.00;9.18;;;;;;;21.22;100.00;100681.71;4975329;57;1142983;-72
2023/09/29 22:19:54;;;;;;;14.73;10.08;;;;;;;21.29;100.00;100678.59;5065819;56;1143423;-71
2023/09/29 22:24:59;;;;;;;18.42;9.10;;;;;;;21.37;100.00;100676.67;5039239;56;1145314;-72
2023/09/29 22:30:07;;;;;;;15.38;7.83;;;;;;;21.43;100.00;100675.58;5013915;56;1143367;-73
2023/09/29 22:35:12;;;;;;;13.95;8.40;;;;;;;21.46;99.98;100663.11;5077943;56;1143011;-70
2023/09/29 22:40:18;;;;;;;10.10;7.78;;;;;;;21.33;98.44;100661.91;4912573;57;1141005;-73
2023/09/29 22:45:25;;;;;;;15.10;7.33;;;;;;;21.25;97.88;100661.98;5012596;56;1140934;-72
2023/09/29 22:50:32;;;;;;;15.48;9.03;;;;;;;21.21;97.40;100667.94;4985105;56;1140908;-72